Pagina principale
METAR-TAF:

METAR-TAF

Aeroporti :

Aeroporto Internazionale di Hato

Curaçao, Antille olandesi

latitudine: 12-12N, longitudine: 068-58W, altezza: 9 m

Osservazione

Il bollettino è stato emesso 1 ora e 5 minuti fa, alle 20:00 UTC
Vento 15 kt da est
Temperature 30°C
Umidità 66%
Pressione 1012 hPa
Visibilità 10 km o più

METAR: TNCC 242000Z AUTO 10015KT 9999 NSC 30/23 Q1012 NOSIG

Ora: 17:05 (21:05 UTC)

Previsione

Il bollettino è stato emesso 5 ore e 5 minuti fa, alle 16:00 UTC
Previsione valida dal 24 alle 18 UTC al 25 alle 18 UTC
Vento 16 kt da est
Visibilità 10 km o più
Nubi sparse ad un'altezza di 2000 ft

TAF: TNCC 241600Z 2418/2518 10016KT 9999 SCT020

Osservazioni e previsioni meteorologiche di più di 4000 aeroporti (messaggi METAR e TAF).

Le stazioni disponibili sono rappresentate dai dischi gialli e rossi sulla carta.

Puntare il mouse per vedere il nome della stazione.

Clicca sopra per visualizzare le osservazioni e previsioni meteorologiche.

Per cambiare la mappa : fare clic sui pulsanti verdi con una croce nera per ingrandire, il pulsante verde con un trattino per diminuire, o sulla freccia verde per le mappe adiacenti.


METAR-TAF: